createdAt,value
2023-04-30T00:00:57.350Z,958.6175
2023-04-30T00:02:01.798Z,958.6300
2023-04-30T00:03:06.502Z,958.6183
2023-04-30T00:04:11.056Z,958.5750
2023-04-30T00:05:15.491Z,958.5692
2023-04-30T00:06:20.210Z,958.6008
2023-04-30T00:07:24.650Z,958.6133
2023-04-30T00:08:29.285Z,958.6275
2023-04-30T00:09:33.711Z,958.6008
2023-04-30T00:10:38.386Z,958.5383
2023-04-30T00:11:42.788Z,958.5259
2023-04-30T00:12:47.218Z,958.5450
2023-04-30T00:13:51.954Z,958.5667
2023-04-30T00:14:56.347Z,958.5784
2023-04-30T00:16:00.951Z,958.5734
2023-04-30T00:17:05.376Z,958.5125
2023-04-30T00:18:10.030Z,958.4900
2023-04-30T00:19:14.478Z,958.5308
2023-04-30T00:20:18.878Z,958.5725
2023-04-30T00:21:23.370Z,958.5792
2023-04-30T00:22:28.060Z,958.5675
2023-04-30T00:23:32.593Z,958.5092
2023-04-30T00:24:37.018Z,958.4766
2023-04-30T00:25:41.558Z,958.4950
2023-04-30T00:26:45.957Z,958.5059
2023-04-30T00:27:50.413Z,958.5342
2023-04-30T00:28:54.813Z,958.5433
2023-04-30T00:29:59.233Z,958.4925
2023-04-30T00:31:03.836Z,958.4517
2023-04-30T00:32:08.345Z,958.4767
2023-04-30T00:33:12.997Z,958.5092
2023-04-30T00:34:17.433Z,958.5284
2023-04-30T00:35:22.084Z,958.5259
2023-04-30T00:36:26.522Z,958.4775
2023-04-30T00:37:30.953Z,958.4509
2023-04-30T00:38:35.387Z,958.4675
2023-04-30T00:39:39.763Z,958.4808
2023-04-30T00:40:44.206Z,958.5067
2023-04-30T00:41:48.646Z,958.5117
2023-04-30T00:42:53.082Z,958.4450
2023-04-30T00:43:57.494Z,958.4009
2023-04-30T00:45:01.885Z,958.4250
2023-04-30T00:46:06.366Z,958.4534
2023-04-30T00:47:10.821Z,958.4700
2023-04-30T00:48:15.261Z,958.4850
2023-04-30T00:49:19.684Z,958.4400
2023-04-30T00:50:24.105Z,958.3834
2023-04-30T00:51:28.531Z,958.3975
2023-04-30T00:52:32.946Z,958.4125
2023-04-30T00:53:37.376Z,958.4375
2023-04-30T00:54:41.794Z,958.4467
2023-04-30T00:55:46.206Z,958.3992
2023-04-30T00:56:50.629Z,958.3517
2023-04-30T00:57:55.274Z,958.3592
2023-04-30T00:58:59.715Z,958.4050
2023-04-30T01:00:06.022Z,958.4350
2023-04-30T01:01:10.479Z,958.4567
2023-04-30T01:02:14.900Z,958.4217
2023-04-30T01:03:19.405Z,958.3658
2023-04-30T01:04:23.799Z,958.3658
2023-04-30T01:05:28.222Z,958.3716
2023-04-30T01:06:32.646Z,958.3867
2023-04-30T01:07:37.051Z,958.3925
2023-04-30T01:08:41.494Z,958.3550
2023-04-30T01:09:45.890Z,958.3375
2023-04-30T01:10:50.299Z,958.3384
2023-04-30T01:11:54.732Z,958.3566
2023-04-30T01:12:55.353Z,958.3700
2023-04-30T01:13:59.780Z,958.3725
2023-04-30T01:15:04.204Z,958.3200
2023-04-30T01:16:08.653Z,958.2734
2023-04-30T01:17:13.055Z,958.2825
2023-04-30T01:18:17.627Z,958.3016
2023-04-30T01:19:22.145Z,958.3250
2023-04-30T01:20:26.547Z,958.3375
2023-04-30T01:21:30.986Z,958.2967
2023-04-30T01:22:35.381Z,958.2592
2023-04-30T01:23:39.816Z,958.2742
2023-04-30T01:24:44.249Z,958.3091
2023-04-30T01:25:48.825Z,958.3284
2023-04-30T01:26:53.249Z,958.3392
2023-04-30T01:27:57.880Z,958.2825
2023-04-30T01:29:02.335Z,958.2333
2023-04-30T01:30:06.739Z,958.2341
2023-04-30T01:31:11.236Z,958.2692
2023-04-30T01:32:15.628Z,958.2892
2023-04-30T01:33:20.058Z,958.3050
2023-04-30T01:34:24.446Z,958.2550
2023-04-30T01:35:28.883Z,958.2067
2023-04-30T01:36:33.295Z,958.2175
2023-04-30T01:37:37.717Z,958.2534
2023-04-30T01:38:42.118Z,958.2758
2023-04-30T01:39:46.565Z,958.3058
2023-04-30T01:40:50.957Z,958.2717
2023-04-30T01:41:55.390Z,958.2325
2023-04-30T01:43:00.055Z,958.2416
2023-04-30T01:44:04.480Z,958.2700
2023-04-30T01:45:08.901Z,958.2908
2023-04-30T01:46:13.436Z,958.2991
2023-04-30T01:47:17.824Z,958.2600
2023-04-30T01:48:22.485Z,958.2266
2023-04-30T01:49:26.913Z,958.2300
2023-04-30T01:50:31.660Z,958.2609
2023-04-30T01:51:36.069Z,958.2759
2023-04-30T01:52:40.475Z,958.2817
2023-04-30T01:53:45.158Z,958.2183
2023-04-30T01:54:49.567Z,958.1625
2023-04-30T01:55:54.132Z,958.1575
2023-04-30T01:56:58.567Z,958.1775
2023-04-30T01:58:03.390Z,958.1992
2023-04-30T01:59:07.815Z,958.2192
2023-04-30T02:00:12.278Z,958.1592
2023-04-30T02:01:17.085Z,958.1083
2023-04-30T02:02:21.535Z,958.1133
2023-04-30T02:03:26.320Z,958.1409
2023-04-30T02:04:30.750Z,958.1692
2023-04-30T02:05:35.161Z,958.2009
2023-04-30T02:06:39.803Z,958.1542
2023-04-30T02:07:44.297Z,958.1075
2023-04-30T02:08:48.956Z,958.1058
2023-04-30T02:09:53.529Z,958.1266
2023-04-30T02:10:58.334Z,958.1567
2023-04-30T02:12:02.748Z,958.1766
2023-04-30T02:13:07.339Z,958.1259
2023-04-30T02:14:11.748Z,958.0850
2023-04-30T02:15:16.171Z,958.0942
2023-04-30T02:16:20.896Z,958.1225
2023-04-30T02:17:25.419Z,958.1525
2023-04-30T02:18:29.817Z,958.1542
2023-04-30T02:19:34.233Z,958.1050
2023-04-30T02:20:38.779Z,958.0433
2023-04-30T02:21:43.218Z,958.0500
2023-04-30T02:22:47.650Z,958.0867
2023-04-30T02:23:52.109Z,958.1284
2023-04-30T02:24:56.535Z,958.1650
2023-04-30T02:26:00.955Z,958.1392
2023-04-30T02:27:05.348Z,958.1050
2023-04-30T02:28:09.750Z,958.1141
2023-04-30T02:29:14.180Z,958.1467
2023-04-30T02:30:18.611Z,958.1708
2023-04-30T02:31:23.073Z,958.1859
2023-04-30T02:32:27.482Z,958.1309
2023-04-30T02:33:31.886Z,958.0558
2023-04-30T02:34:36.285Z,958.0516
2023-04-30T02:35:40.710Z,958.0833
2023-04-30T02:36:45.148Z,958.1191
2023-04-30T02:37:49.566Z,958.1434
2023-04-30T02:38:53.998Z,958.1350
2023-04-30T02:39:58.398Z,958.0792
2023-04-30T02:41:03.535Z,958.0784
2023-04-30T02:42:07.942Z,958.0975
2023-04-30T02:43:12.694Z,958.1259
2023-04-30T02:44:17.110Z,958.1525
2023-04-30T02:45:21.520Z,958.1266
2023-04-30T02:46:26.240Z,958.0641
2023-04-30T02:47:30.725Z,958.0600
2023-04-30T02:48:35.283Z,958.0925
2023-04-30T02:49:39.685Z,958.1200
2023-04-30T02:50:44.374Z,958.1459
2023-04-30T02:51:48.778Z,958.1133
2023-04-30T02:52:53.206Z,958.0616
2023-04-30T02:53:57.602Z,958.0600
2023-04-30T02:55:02.016Z,958.0817
2023-04-30T02:56:06.705Z,958.1150
2023-04-30T02:57:11.129Z,958.1259
2023-04-30T02:58:15.812Z,958.0792
2023-04-30T02:59:20.220Z,958.0125
2023-04-30T03:00:24.653Z,958.0084
2023-04-30T03:01:29.083Z,958.0250
2023-04-30T03:02:33.561Z,958.0466
2023-04-30T03:03:38.138Z,958.0650
2023-04-30T03:04:42.544Z,958.0333
2023-04-30T03:05:47.105Z,957.9825
2023-04-30T03:06:51.517Z,958.0009
2023-04-30T03:07:55.958Z,958.0325
2023-04-30T03:09:00.646Z,958.0775
2023-04-30T03:10:05.065Z,958.0950
2023-04-30T03:11:09.561Z,958.0634
2023-04-30T03:12:13.994Z,958.0050
2023-04-30T03:13:18.640Z,958.0234
2023-04-30T03:14:23.066Z,958.0550
2023-04-30T03:15:27.510Z,958.0900
2023-04-30T03:16:31.960Z,958.1100
2023-04-30T03:17:36.463Z,958.0625
2023-04-30T03:18:40.864Z,957.9891
2023-04-30T03:19:45.292Z,957.9858
2023-04-30T03:20:49.695Z,958.0092
2023-04-30T03:21:54.120Z,958.0408
2023-04-30T03:22:58.524Z,958.0583
2023-04-30T03:24:02.944Z,958.0300
2023-04-30T03:25:07.375Z,957.9625
2023-04-30T03:26:12.031Z,957.9583
2023-04-30T03:27:16.466Z,957.9891
2023-04-30T03:28:20.971Z,958.0267
2023-04-30T03:29:25.413Z,958.0267
2023-04-30T03:30:29.797Z,958.0050
2023-04-30T03:31:34.265Z,957.9408
2023-04-30T03:32:38.674Z,957.9166
2023-04-30T03:33:43.629Z,957.9316
2023-04-30T03:34:48.031Z,957.9642
2023-04-30T03:35:48.880Z,957.9772
2023-04-30T03:36:53.277Z,957.9683
2023-04-30T03:37:57.684Z,957.9075
2023-04-30T03:39:02.345Z,957.9017
2023-04-30T03:40:06.761Z,957.9291
2023-04-30T03:41:11.420Z,957.9583
2023-04-30T03:42:15.823Z,957.9875
2023-04-30T03:43:20.257Z,957.9758
2023-04-30T03:44:24.684Z,957.9142
2023-04-30T03:45:29.108Z,957.9108
2023-04-30T03:46:33.545Z,957.9467
2023-04-30T03:47:37.978Z,957.9725
2023-04-30T03:48:42.379Z,957.9966
2023-04-30T03:49:46.811Z,957.9833
2023-04-30T03:50:51.551Z,957.9100
2023-04-30T03:51:55.971Z,957.9058
2023-04-30T03:53:00.370Z,957.9333
2023-04-30T03:54:04.798Z,957.9667
2023-04-30T03:55:09.203Z,957.9700
2023-04-30T03:56:13.987Z,957.9533
2023-04-30T03:57:18.381Z,957.8875
2023-04-30T03:58:22.930Z,957.8784
2023-04-30T03:59:27.332Z,957.8992
2023-04-30T04:00:31.770Z,957.9116
2023-04-30T04:01:36.216Z,957.9333
2023-04-30T04:02:40.645Z,957.9200
2023-04-30T04:03:45.368Z,957.8492
2023-04-30T04:04:49.751Z,957.8375
2023-04-30T04:05:54.430Z,957.8658
2023-04-30T04:06:58.930Z,957.9141
2023-04-30T04:08:03.339Z,957.9475
2023-04-30T04:09:07.767Z,957.9583
2023-04-30T04:10:12.163Z,957.9083
2023-04-30T04:11:16.698Z,957.9250
2023-04-30T04:12:21.123Z,957.9633
2023-04-30T04:13:25.534Z,957.9966
2023-04-30T04:14:29.954Z,958.0109
2023-04-30T04:15:34.417Z,957.9975
2023-04-30T04:16:38.839Z,957.9150
2023-04-30T04:17:43.299Z,957.9000
2023-04-30T04:18:47.739Z,957.9316
2023-04-30T04:19:52.295Z,957.9717
2023-04-30T04:20:56.812Z,957.9908
2023-04-30T04:22:01.238Z,957.9758
2023-04-30T04:23:05.645Z,957.9017
2023-04-30T04:24:10.083Z,957.8633
2023-04-30T04:25:14.492Z,957.8950
2023-04-30T04:26:19.166Z,957.9350
2023-04-30T04:27:23.593Z,957.9567
2023-04-30T04:28:28.040Z,957.9700
2023-04-30T04:29:32.450Z,957.9225
2023-04-30T04:30:36.841Z,957.8975
2023-04-30T04:31:41.526Z,957.9266
2023-04-30T04:32:46.005Z,957.9675
2023-04-30T04:33:50.561Z,957.9833
2023-04-30T04:34:54.977Z,957.9891
2023-04-30T04:35:59.466Z,957.9225
2023-04-30T04:37:03.910Z,957.8892
2023-04-30T04:38:08.301Z,957.9208
2023-04-30T04:39:12.718Z,957.9608
2023-04-30T04:40:17.126Z,958.0075
2023-04-30T04:41:21.572Z,958.0234
2023-04-30T04:42:25.984Z,957.9900
2023-04-30T04:43:30.734Z,957.9875
2023-04-30T04:44:35.143Z,958.0233
2023-04-30T04:45:39.573Z,958.0659
2023-04-30T04:46:44.282Z,958.1067
2023-04-30T04:47:48.736Z,958.1066
2023-04-30T04:48:53.160Z,958.0492
2023-04-30T04:49:57.549Z,958.0234
2023-04-30T04:51:02.093Z,958.0483
2023-04-30T04:52:06.485Z,958.0792
2023-04-30T04:53:10.926Z,958.1133
2023-04-30T04:54:15.329Z,958.1275
2023-04-30T04:55:19.736Z,958.0758
2023-04-30T04:56:24.161Z,958.0475
2023-04-30T04:57:28.614Z,958.0759
2023-04-30T04:58:33.008Z,958.1091
2023-04-30T04:59:37.419Z,958.1417
2023-04-30T05:00:41.953Z,958.1600
2023-04-30T05:01:46.425Z,958.1100
2023-04-30T05:02:50.940Z,958.0717
2023-04-30T05:03:55.535Z,958.0858
2023-04-30T05:04:59.960Z,958.1108
2023-04-30T05:06:04.399Z,958.1442
2023-04-30T05:07:08.805Z,958.1492
2023-04-30T05:08:13.251Z,958.1033
2023-04-30T05:09:17.683Z,958.0417
2023-04-30T05:10:22.103Z,958.0616
2023-04-30T05:11:26.606Z,958.0759
2023-04-30T05:12:31.034Z,958.1108
2023-04-30T05:13:42.920Z,958.1108
2023-04-30T05:14:47.348Z,958.0641
2023-04-30T05:15:51.780Z,958.0383
2023-04-30T05:16:56.155Z,958.0659
2023-04-30T05:18:00.659Z,958.0767
2023-04-30T05:19:05.177Z,958.0983
2023-04-30T05:20:09.599Z,958.0883
2023-04-30T05:21:14.036Z,957.9975
2023-04-30T05:22:18.457Z,957.9617
2023-04-30T05:23:22.867Z,957.9875
2023-04-30T05:24:27.281Z,958.0392
2023-04-30T05:25:31.722Z,958.0759
2023-04-30T05:26:36.110Z,958.0833
2023-04-30T05:27:40.536Z,958.0342
2023-04-30T05:28:44.974Z,958.0009
2023-04-30T05:29:49.379Z,958.0167
2023-04-30T05:30:53.820Z,958.0483
2023-04-30T05:31:58.303Z,958.0942
2023-04-30T05:33:02.730Z,958.0884
2023-04-30T05:34:07.173Z,958.0283
2023-04-30T05:35:11.572Z,957.9825
2023-04-30T05:36:15.979Z,957.9984
2023-04-30T05:37:20.415Z,958.0217
2023-04-30T05:38:24.829Z,958.0500
2023-04-30T05:39:29.377Z,958.0742
2023-04-30T05:40:33.784Z,958.0183
2023-04-30T05:41:34.463Z,957.9827
2023-04-30T05:42:38.915Z,957.9950
2023-04-30T05:43:43.296Z,958.0342
2023-04-30T05:44:47.726Z,958.0800
2023-04-30T05:45:52.182Z,958.0983
2023-04-30T05:46:56.599Z,958.0442
2023-04-30T05:48:01.024Z,958.0009
2023-04-30T05:49:05.705Z,958.0292
2023-04-30T05:50:10.201Z,958.0808
2023-04-30T05:51:14.841Z,958.1158
2023-04-30T05:52:19.289Z,958.1442
2023-04-30T05:53:23.719Z,958.1092
2023-04-30T05:54:28.174Z,958.0675
2023-04-30T05:55:32.651Z,958.0767
2023-04-30T05:56:37.689Z,958.1225
2023-04-30T05:57:42.163Z,958.1542
2023-04-30T05:58:46.709Z,958.1808
2023-04-30T05:59:51.198Z,958.1475
2023-04-30T06:00:55.601Z,958.0992
2023-04-30T06:02:00.132Z,958.1125
2023-04-30T06:03:04.562Z,958.1567
2023-04-30T06:04:09.090Z,958.1884
2023-04-30T06:05:16.084Z,958.2250
2023-04-30T06:06:15.503Z,958.1718
2023-04-30T06:07:19.999Z,958.1100
2023-04-30T06:08:24.466Z,958.1116
2023-04-30T06:09:28.918Z,958.1275
2023-04-30T06:10:33.365Z,958.1600
2023-04-30T06:11:38.102Z,958.1866
2023-04-30T06:12:42.494Z,958.1392
2023-04-30T06:13:46.968Z,958.0650
2023-04-30T06:14:51.417Z,958.0408
2023-04-30T06:15:55.838Z,958.0750
2023-04-30T06:17:00.334Z,958.1017
2023-04-30T06:18:04.779Z,958.1025
2023-04-30T06:19:09.000Z,958.0911
2023-04-30T06:20:13.432Z,958.0167
2023-04-30T06:21:17.896Z,958.0025
2023-04-30T06:22:22.317Z,958.0325
2023-04-30T06:23:31.220Z,958.0630
2023-04-30T06:24:24.619Z,958.0872
2023-04-30T06:25:29.070Z,958.0767
2023-04-30T06:26:33.502Z,958.0200
2023-04-30T06:27:37.956Z,958.0050
2023-04-30T06:28:39.355Z,958.0230
2023-04-30T06:29:43.769Z,958.0742
2023-04-30T06:30:48.227Z,958.1175
2023-04-30T06:31:52.926Z,958.1208
2023-04-30T06:32:57.546Z,958.0675
2023-04-30T06:34:01.983Z,958.0609
2023-04-30T06:35:06.463Z,958.0842
2023-04-30T06:36:10.905Z,958.1266
2023-04-30T06:37:15.343Z,958.1666
2023-04-30T06:38:19.789Z,958.1633
2023-04-30T06:39:24.255Z,958.1141
2023-04-30T06:40:28.716Z,958.0725
2023-04-30T06:41:33.178Z,958.0908
2023-04-30T06:42:37.620Z,958.1325
2023-04-30T06:43:42.092Z,958.1550
2023-04-30T06:44:46.524Z,958.1741
2023-04-30T06:45:51.014Z,958.1208
2023-04-30T06:46:55.491Z,958.0892
2023-04-30T06:47:59.990Z,958.1241
2023-04-30T06:49:04.457Z,958.1692
2023-04-30T06:50:08.919Z,958.1850
2023-04-30T06:51:13.334Z,958.2108
2023-04-30T06:52:17.819Z,958.1275
2023-04-30T06:53:22.246Z,958.0850
2023-04-30T06:54:26.733Z,958.1141
2023-04-30T06:55:31.171Z,958.1425
2023-04-30T06:56:35.641Z,958.1850
2023-04-30T06:57:40.129Z,958.2117
2023-04-30T06:58:44.566Z,958.1608
2023-04-30T06:59:49.012Z,958.1075
2023-04-30T07:00:53.445Z,958.1300
2023-04-30T07:01:57.983Z,958.1666
2023-04-30T07:03:02.542Z,958.2158
2023-04-30T07:04:07.122Z,958.2491
2023-04-30T07:05:11.575Z,958.2300
2023-04-30T07:06:16.043Z,958.1975
2023-04-30T07:07:20.440Z,958.2125
2023-04-30T07:08:24.892Z,958.2325
2023-04-30T07:09:29.343Z,958.2575
2023-04-30T07:10:33.780Z,958.2709
2023-04-30T07:11:38.217Z,958.2042
2023-04-30T07:12:42.676Z,958.1241
2023-04-30T07:13:47.115Z,958.1041
2023-04-30T07:14:51.551Z,958.1266
2023-04-30T07:15:56.003Z,958.1450
2023-04-30T07:17:00.467Z,958.1691
2023-04-30T07:18:04.908Z,958.1567
2023-04-30T07:19:09.357Z,958.0925
2023-04-30T07:20:13.798Z,958.0825
2023-04-30T07:21:18.267Z,958.1150
2023-04-30T07:22:22.702Z,958.1384
2023-04-30T07:23:28.502Z,958.1625
2023-04-30T07:24:29.545Z,958.1346
2023-04-30T07:25:34.010Z,958.0692
2023-04-30T07:26:38.435Z,958.0458
2023-04-30T07:27:42.890Z,958.0650
2023-04-30T07:28:47.323Z,958.1000
2023-04-30T07:29:51.788Z,958.1300
2023-04-30T07:30:56.224Z,958.1025
2023-04-30T07:32:00.774Z,958.0367
2023-04-30T07:33:05.210Z,958.0134
2023-04-30T07:34:09.635Z,958.0350
2023-04-30T07:35:14.115Z,958.0667
2023-04-30T07:36:18.803Z,958.0825
2023-04-30T07:37:23.233Z,958.0659
2023-04-30T07:38:27.683Z,957.9966
2023-04-30T07:39:32.118Z,957.9958
2023-04-30T07:40:36.774Z,958.0292
2023-04-30T07:41:41.260Z,958.0767
2023-04-30T07:42:45.726Z,958.1075
2023-04-30T07:43:50.169Z,958.1067
2023-04-30T07:44:54.608Z,958.0233
2023-04-30T07:45:59.115Z,957.9850
2023-04-30T07:47:03.518Z,958.0000
2023-04-30T07:48:07.996Z,958.0375
2023-04-30T07:49:12.467Z,958.0850
2023-04-30T07:50:16.933Z,958.0775
2023-04-30T07:51:21.366Z,958.0117
2023-04-30T07:52:25.829Z,957.9916
2023-04-30T07:53:30.257Z,958.0067
2023-04-30T07:54:34.682Z,958.0450
2023-04-30T07:55:39.167Z,958.0508
2023-04-30T07:56:43.648Z,958.0408
2023-04-30T07:57:48.053Z,957.9758
2023-04-30T07:58:52.591Z,957.9300
2023-04-30T07:59:57.171Z,957.9600
2023-04-30T08:01:01.825Z,957.9900
2023-04-30T08:02:06.347Z,958.0250
2023-04-30T08:03:10.931Z,958.0383
2023-04-30T08:04:15.393Z,958.0150
2023-04-30T08:05:19.838Z,957.9750
2023-04-30T08:06:24.337Z,957.9908
2023-04-30T08:07:28.772Z,958.0267
2023-04-30T08:08:33.222Z,958.0550
2023-04-30T08:09:37.657Z,958.0566
2023-04-30T08:10:42.104Z,958.0034
2023-04-30T08:11:46.567Z,957.9450
2023-04-30T08:12:50.991Z,957.9633
2023-04-30T08:13:55.454Z,957.9925
2023-04-30T08:14:59.878Z,958.0425
2023-04-30T08:16:04.384Z,958.0433
2023-04-30T08:17:08.831Z,958.0025
2023-04-30T08:18:13.293Z,957.9400
2023-04-30T08:19:17.750Z,957.9459
2023-04-30T08:20:22.206Z,957.9808
2023-04-30T08:21:26.640Z,958.0109
2023-04-30T08:22:31.108Z,958.0275
2023-04-30T08:23:35.543Z,957.9817
2023-04-30T08:24:40.008Z,957.9333
2023-04-30T08:25:44.438Z,957.9500
2023-04-30T08:26:48.898Z,957.9825
2023-04-30T08:27:53.326Z,958.0308
2023-04-30T08:28:57.801Z,958.0609
2023-04-30T08:30:02.238Z,958.0325
2023-04-30T08:31:06.698Z,957.9625
2023-04-30T08:32:11.216Z,957.9567
2023-04-30T08:33:15.856Z,957.9900
2023-04-30T08:34:20.292Z,958.0225
2023-04-30T08:35:24.765Z,958.0516
2023-04-30T08:36:29.201Z,958.0425
2023-04-30T08:37:33.669Z,957.9816
2023-04-30T08:38:38.106Z,957.9925
2023-04-30T08:39:42.548Z,958.0333
2023-04-30T08:40:51.686Z,958.0734
2023-04-30T08:41:50.968Z,958.1082
2023-04-30T08:42:55.408Z,958.0875
2023-04-30T08:43:59.864Z,958.0325
2023-04-30T08:45:04.356Z,958.0225
2023-04-30T08:46:08.825Z,958.0400
2023-04-30T08:47:13.310Z,958.0908
2023-04-30T08:48:17.729Z,958.1208
2023-04-30T08:49:23.381Z,958.0942
2023-04-30T08:50:23.735Z,958.0291
2023-04-30T08:51:28.169Z,958.0292
2023-04-30T08:52:32.594Z,958.0792
2023-04-30T08:53:37.115Z,958.1241
2023-04-30T08:54:41.542Z,958.1600
2023-04-30T08:55:46.249Z,958.1517
2023-04-30T08:56:50.688Z,958.0867
2023-04-30T08:57:55.499Z,958.0734
2023-04-30T08:58:56.256Z,958.0964
2023-04-30T09:00:00.686Z,958.1309
2023-04-30T09:01:05.429Z,958.1841
2023-04-30T09:02:10.103Z,958.1833
2023-04-30T09:03:14.728Z,958.1225
2023-04-30T09:04:19.436Z,958.1033
2023-04-30T09:05:23.869Z,958.1325
2023-04-30T09:06:28.322Z,958.1692
2023-04-30T09:07:32.755Z,958.2000
2023-04-30T09:08:37.222Z,958.2008
2023-04-30T09:09:41.691Z,958.1383
2023-04-30T09:10:46.095Z,958.0992
2023-04-30T09:11:50.551Z,958.1083
2023-04-30T09:12:54.999Z,958.1284
2023-04-30T09:13:59.464Z,958.1592
2023-04-30T09:15:04.043Z,958.1692
2023-04-30T09:16:08.886Z,958.1091
2023-04-30T09:17:13.313Z,958.0958
2023-04-30T09:18:18.123Z,958.1067
2023-04-30T09:19:23.029Z,958.1275
2023-04-30T09:20:27.474Z,958.1434
2023-04-30T09:21:32.156Z,958.1183
2023-04-30T09:22:36.641Z,958.0358
2023-04-30T09:23:41.054Z,957.9750
2023-04-30T09:24:45.492Z,957.9866
2023-04-30T09:25:49.945Z,958.0267
2023-04-30T09:26:54.407Z,958.0759
2023-04-30T09:27:58.866Z,958.0917
2023-04-30T09:29:03.301Z,958.0475
2023-04-30T09:30:07.774Z,958.0367
2023-04-30T09:31:12.234Z,958.0475
2023-04-30T09:32:16.741Z,958.0825
2023-04-30T09:33:21.188Z,958.1141
2023-04-30T09:34:25.634Z,958.1133
2023-04-30T09:35:30.097Z,958.0342
2023-04-30T09:36:34.646Z,957.9833
2023-04-30T09:37:39.225Z,957.9866
2023-04-30T09:38:43.903Z,958.0217
2023-04-30T09:39:48.326Z,958.0475
2023-04-30T09:40:52.800Z,958.0383
2023-04-30T09:41:57.564Z,957.9633
2023-04-30T09:43:02.025Z,957.9183
2023-04-30T09:44:06.710Z,957.8975
2023-04-30T09:45:11.175Z,957.9175
2023-04-30T09:46:15.789Z,957.9241
2023-04-30T09:47:20.414Z,957.9058
2023-04-30T09:48:24.973Z,957.8483
2023-04-30T09:49:29.387Z,957.8184
2023-04-30T09:50:33.844Z,957.8325
2023-04-30T09:51:34.524Z,957.8373
2023-04-30T09:52:38.989Z,957.8492
2023-04-30T09:53:43.641Z,957.8475
2023-04-30T09:54:48.113Z,957.7817
2023-04-30T09:55:52.549Z,957.7316
2023-04-30T09:56:57.008Z,957.7416
2023-04-30T09:58:01.487Z,957.7725
2023-04-30T09:59:05.927Z,957.7966
2023-04-30T10:00:10.365Z,957.8041
2023-04-30T10:01:14.915Z,957.7542
2023-04-30T10:02:19.373Z,957.6700
2023-04-30T10:03:23.818Z,957.6942
2023-04-30T10:04:28.345Z,957.7516
2023-04-30T10:05:32.831Z,957.7659
2023-04-30T10:06:37.309Z,957.7592
2023-04-30T10:07:41.765Z,957.7167
2023-04-30T10:08:46.344Z,957.6825
2023-04-30T10:09:50.828Z,957.7258
2023-04-30T10:10:55.276Z,957.7609
2023-04-30T10:11:59.720Z,957.7534
2023-04-30T10:13:05.300Z,957.7534
2023-04-30T10:14:05.601Z,957.7164
2023-04-30T10:15:10.060Z,957.6508
2023-04-30T10:16:14.486Z,957.6616
2023-04-30T10:17:18.931Z,957.6558
2023-04-30T10:18:23.389Z,957.6550
2023-04-30T10:19:27.843Z,957.6625
2023-04-30T10:20:32.304Z,957.6342
2023-04-30T10:21:36.744Z,957.5625
2023-04-30T10:22:41.212Z,957.5267
2023-04-30T10:23:45.665Z,957.5575
2023-04-30T10:24:50.124Z,957.5700
2023-04-30T10:25:54.567Z,957.5725
2023-04-30T10:26:59.070Z,957.5759
2023-04-30T10:28:04.796Z,957.5200
2023-04-30T10:29:04.108Z,957.5009
2023-04-30T10:30:08.542Z,957.5083
2023-04-30T10:31:12.996Z,957.5541
2023-04-30T10:32:17.569Z,957.5634
2023-04-30T10:33:22.133Z,957.5742
2023-04-30T10:34:26.597Z,957.5225
2023-04-30T10:35:31.053Z,957.4791
2023-04-30T10:36:35.525Z,957.4975
2023-04-30T10:37:39.968Z,957.5300
2023-04-30T10:38:45.473Z,957.5392
2023-04-30T10:39:46.203Z,957.5327
2023-04-30T10:40:50.645Z,957.4767
2023-04-30T10:41:55.087Z,957.4366
2023-04-30T10:42:59.556Z,957.4583
2023-04-30T10:44:03.989Z,957.4817
2023-04-30T10:45:08.414Z,957.4941
2023-04-30T10:46:12.898Z,957.5050
2023-04-30T10:47:17.356Z,957.4475
2023-04-30T10:48:21.761Z,957.4083
2023-04-30T10:49:26.217Z,957.4175
2023-04-30T10:50:30.649Z,957.4191
2023-04-30T10:51:35.115Z,957.4425
2023-04-30T10:52:39.566Z,957.4333
2023-04-30T10:53:44.031Z,957.3734
2023-04-30T10:54:48.458Z,957.3284
2023-04-30T10:55:52.901Z,957.3300
2023-04-30T10:56:57.327Z,957.3450
2023-04-30T10:58:01.782Z,957.3417
2023-04-30T10:59:06.243Z,957.3541
2023-04-30T11:00:10.722Z,957.2817
2023-04-30T11:01:15.177Z,957.2025
2023-04-30T11:02:19.627Z,957.2250
2023-04-30T11:03:24.063Z,957.2366
2023-04-30T11:04:28.618Z,957.2617
2023-04-30T11:05:33.056Z,957.2667
2023-04-30T11:06:37.576Z,957.2092
2023-04-30T11:07:42.109Z,957.1725
2023-04-30T11:08:46.565Z,957.1891
2023-04-30T11:09:50.997Z,957.2092
2023-04-30T11:10:55.459Z,957.2542
2023-04-30T11:11:59.911Z,957.2534
2023-04-30T11:13:04.348Z,957.1675
2023-04-30T11:14:08.801Z,957.1275
2023-04-30T11:15:13.249Z,957.1533
2023-04-30T11:16:17.783Z,957.2050
2023-04-30T11:17:22.240Z,957.2425
2023-04-30T11:18:26.680Z,957.2600
2023-04-30T11:19:31.137Z,957.2325
2023-04-30T11:20:35.593Z,957.1958
2023-04-30T11:21:40.037Z,957.2025
2023-04-30T11:22:44.483Z,957.2400
2023-04-30T11:23:48.914Z,957.2808
2023-04-30T11:24:53.394Z,957.2933
2023-04-30T11:25:57.823Z,957.2517
2023-04-30T11:27:02.267Z,957.2000
2023-04-30T11:28:06.720Z,957.2117
2023-04-30T11:29:11.227Z,957.2658
2023-04-30T11:30:15.698Z,957.3058
2023-04-30T11:31:20.182Z,957.3641
2023-04-30T11:32:24.614Z,957.3458
2023-04-30T11:33:29.058Z,957.2958
2023-04-30T11:34:33.489Z,957.2983
2023-04-30T11:35:37.938Z,957.3325
2023-04-30T11:36:43.007Z,957.3508
2023-04-30T11:37:43.103Z,957.3682
2023-04-30T11:38:47.578Z,957.3525
2023-04-30T11:39:51.992Z,957.3016
2023-04-30T11:40:56.456Z,957.2916
2023-04-30T11:42:00.906Z,957.2983
2023-04-30T11:43:05.369Z,957.3033
2023-04-30T11:44:09.801Z,957.3075
2023-04-30T11:45:14.273Z,957.2467
2023-04-30T11:46:18.726Z,957.1533
2023-04-30T11:47:23.190Z,957.1450
2023-04-30T11:48:27.649Z,957.1617
2023-04-30T11:49:32.069Z,957.1925
2023-04-30T11:50:36.525Z,957.2175
2023-04-30T11:51:40.969Z,957.1975
2023-04-30T11:52:45.429Z,957.1342
2023-04-30T11:53:49.864Z,957.1309
2023-04-30T11:54:54.349Z,957.1392
2023-04-30T11:55:58.792Z,957.1775
2023-04-30T11:57:03.227Z,957.2025
2023-04-30T11:58:07.705Z,957.1741
2023-04-30T11:59:12.134Z,957.1000
2023-04-30T12:00:16.590Z,957.0575
2023-04-30T12:01:21.379Z,957.0808
2023-04-30T12:02:25.967Z,957.1158
2023-04-30T12:03:30.918Z,957.1392
2023-04-30T12:04:35.463Z,957.1375
2023-04-30T12:05:39.938Z,957.1075
2023-04-30T12:06:44.516Z,957.0834
2023-04-30T12:07:49.005Z,957.0933
2023-04-30T12:08:53.499Z,957.1150
2023-04-30T12:09:58.310Z,957.1241
2023-04-30T12:11:02.864Z,957.1275
2023-04-30T12:12:07.332Z,957.0808
2023-04-30T12:13:11.765Z,957.0600
2023-04-30T12:14:16.233Z,957.0767
2023-04-30T12:15:20.699Z,957.0967
2023-04-30T12:16:25.317Z,957.0933
2023-04-30T12:17:29.788Z,957.0725
2023-04-30T12:18:34.374Z,957.0016
2023-04-30T12:19:38.805Z,956.9442
2023-04-30T12:20:43.288Z,956.9600
2023-04-30T12:21:47.919Z,956.9942
2023-04-30T12:22:52.387Z,957.0492
2023-04-30T12:23:56.812Z,957.0550
2023-04-30T12:25:01.287Z,957.0150
2023-04-30T12:26:05.694Z,957.0075
2023-04-30T12:27:10.145Z,957.0308
2023-04-30T12:28:14.581Z,957.0525
2023-04-30T12:29:19.073Z,957.0750
2023-04-30T12:30:23.476Z,957.0700
2023-04-30T12:31:27.955Z,957.0350
2023-04-30T12:32:32.469Z,956.9800
2023-04-30T12:33:36.952Z,957.0042
2023-04-30T12:34:41.432Z,957.0475
2023-04-30T12:35:45.833Z,957.0725
2023-04-30T12:36:50.284Z,957.0734